sensor_id;sensor_type;location;lat;lon;timestamp;P1;durP1;ratioP1;P2;durP2;ratioP2
49934;SDS011;39898;41.762;26.200;2024-03-08T00:02:16;54.83;;;26.83;;
49934;SDS011;39898;41.762;26.200;2024-03-08T00:04:42;49.40;;;24.92;;
49934;SDS011;39898;41.762;26.200;2024-03-08T00:07:09;50.15;;;23.73;;
49934;SDS011;39898;41.762;26.200;2024-03-08T00:09:35;47.58;;;23.55;;
49934;SDS011;39898;41.762;26.200;2024-03-08T00:12:02;41.95;;;21.65;;
49934;SDS011;39898;41.762;26.200;2024-03-08T00:14:29;50.70;;;22.98;;
49934;SDS011;39898;41.762;26.200;2024-03-08T00:16:56;45.63;;;23.90;;
49934;SDS011;39898;41.762;26.200;2024-03-08T00:19:22;43.70;;;22.80;;
49934;SDS011;39898;41.762;26.200;2024-03-08T00:21:49;60.63;;;26.00;;
49934;SDS011;39898;41.762;26.200;2024-03-08T00:24:15;47.75;;;24.40;;
49934;SDS011;39898;41.762;26.200;2024-03-08T00:26:42;50.45;;;25.02;;
49934;SDS011;39898;41.762;26.200;2024-03-08T00:29:09;51.17;;;25.80;;
49934;SDS011;39898;41.762;26.200;2024-03-08T00:31:36;47.63;;;22.73;;
49934;SDS011;39898;41.762;26.200;2024-03-08T00:34:03;51.65;;;24.30;;
49934;SDS011;39898;41.762;26.200;2024-03-08T00:36:30;45.83;;;22.98;;
49934;SDS011;39898;41.762;26.200;2024-03-08T00:38:56;53.53;;;22.20;;
49934;SDS011;39898;41.762;26.200;2024-03-08T00:41:23;42.70;;;22.75;;
49934;SDS011;39898;41.762;26.200;2024-03-08T00:43:53;48.63;;;24.13;;
49934;SDS011;39898;41.762;26.200;2024-03-08T00:46:19;46.35;;;22.95;;
49934;SDS011;39898;41.762;26.200;2024-03-08T00:48:46;39.78;;;22.13;;
49934;SDS011;39898;41.762;26.200;2024-03-08T00:51:13;42.63;;;22.42;;
49934;SDS011;39898;41.762;26.200;2024-03-08T00:53:41;47.42;;;22.70;;
49934;SDS011;39898;41.762;26.200;2024-03-08T00:56:09;39.15;;;20.75;;
49934;SDS011;39898;41.762;26.200;2024-03-08T00:58:39;42.20;;;20.83;;
49934;SDS011;39898;41.762;26.200;2024-03-08T01:01:06;48.95;;;21.77;;
49934;SDS011;39898;41.762;26.200;2024-03-08T01:03:33;46.75;;;22.08;;
49934;SDS011;39898;41.762;26.200;2024-03-08T01:06:00;45.38;;;20.92;;
49934;SDS011;39898;41.762;26.200;2024-03-08T01:08:31;45.25;;;20.90;;
49934;SDS011;39898;41.762;26.200;2024-03-08T01:10:57;45.30;;;20.90;;
49934;SDS011;39898;41.762;26.200;2024-03-08T01:13:24;49.72;;;22.00;;
49934;SDS011;39898;41.762;26.200;2024-03-08T01:15:50;43.60;;;22.42;;
49934;SDS011;39898;41.762;26.200;2024-03-08T01:18:17;52.83;;;26.25;;
49934;SDS011;39898;41.762;26.200;2024-03-08T01:20:44;60.42;;;28.65;;
49934;SDS011;39898;41.762;26.200;2024-03-08T01:23:10;73.53;;;30.63;;
49934;SDS011;39898;41.762;26.200;2024-03-08T01:25:37;77.43;;;30.85;;
49934;SDS011;39898;41.762;26.200;2024-03-08T01:28:04;59.83;;;27.92;;
49934;SDS011;39898;41.762;26.200;2024-03-08T01:30:30;60.47;;;26.27;;
49934;SDS011;39898;41.762;26.200;2024-03-08T01:32:59;61.90;;;26.27;;
49934;SDS011;39898;41.762;26.200;2024-03-08T01:35:25;53.25;;;26.30;;
49934;SDS011;39898;41.762;26.200;2024-03-08T01:40:20;57.40;;;26.77;;
49934;SDS011;39898;41.762;26.200;2024-03-08T01:42:46;58.58;;;25.17;;
49934;SDS011;39898;41.762;26.200;2024-03-08T01:45:14;56.75;;;25.13;;
49934;SDS011;39898;41.762;26.200;2024-03-08T01:47:58;62.13;;;25.50;;
49934;SDS011;39898;41.762;26.200;2024-03-08T01:50:42;54.60;;;26.02;;
49934;SDS011;39898;41.762;26.200;2024-03-08T01:53:09;64.15;;;27.60;;
49934;SDS011;39898;41.762;26.200;2024-03-08T01:55:38;59.90;;;25.63;;
49934;SDS011;39898;41.762;26.200;2024-03-08T01:58:06;62.65;;;25.63;;
49934;SDS011;39898;41.762;26.200;2024-03-08T02:00:33;56.05;;;26.50;;
49934;SDS011;39898;41.762;26.200;2024-03-08T02:03:01;58.25;;;26.65;;
49934;SDS011;39898;41.762;26.200;2024-03-08T02:05:28;59.10;;;24.98;;
49934;SDS011;39898;41.762;26.200;2024-03-08T02:07:54;44.95;;;23.30;;
49934;SDS011;39898;41.762;26.200;2024-03-08T02:10:21;55.42;;;25.13;;
49934;SDS011;39898;41.762;26.200;2024-03-08T02:12:48;51.35;;;25.10;;
49934;SDS011;39898;41.762;26.200;2024-03-08T02:15:15;47.15;;;24.08;;
49934;SDS011;39898;41.762;26.200;2024-03-08T02:17:41;55.45;;;25.65;;
49934;SDS011;39898;41.762;26.200;2024-03-08T02:20:08;55.67;;;25.70;;
49934;SDS011;39898;41.762;26.200;2024-03-08T02:22:36;55.90;;;24.65;;
49934;SDS011;39898;41.762;26.200;2024-03-08T02:25:03;50.67;;;24.02;;
49934;SDS011;39898;41.762;26.200;2024-03-08T02:27:31;51.25;;;22.35;;
49934;SDS011;39898;41.762;26.200;2024-03-08T02:29:57;46.85;;;21.52;;
49934;SDS011;39898;41.762;26.200;2024-03-08T02:32:24;40.35;;;19.67;;
49934;SDS011;39898;41.762;26.200;2024-03-08T02:34:51;38.60;;;18.85;;
49934;SDS011;39898;41.762;26.200;2024-03-08T02:37:18;41.50;;;19.95;;
49934;SDS011;39898;41.762;26.200;2024-03-08T02:39:44;37.40;;;17.52;;
49934;SDS011;39898;41.762;26.200;2024-03-08T02:42:11;40.17;;;19.95;;
49934;SDS011;39898;41.762;26.200;2024-03-08T02:44:42;43.33;;;21.20;;
49934;SDS011;39898;41.762;26.200;2024-03-08T02:47:10;47.45;;;21.02;;
49934;SDS011;39898;41.762;26.200;2024-03-08T02:49:36;39.55;;;20.83;;
49934;SDS011;39898;41.762;26.200;2024-03-08T02:52:04;45.72;;;19.63;;
49934;SDS011;39898;41.762;26.200;2024-03-08T02:54:31;39.13;;;19.65;;
49934;SDS011;39898;41.762;26.200;2024-03-08T02:56:57;36.65;;;19.25;;
49934;SDS011;39898;41.762;26.200;2024-03-08T02:59:24;38.13;;;20.25;;
49934;SDS011;39898;41.762;26.200;2024-03-08T03:01:51;51.30;;;21.17;;
49934;SDS011;39898;41.762;26.200;2024-03-08T03:04:17;48.22;;;21.63;;
49934;SDS011;39898;41.762;26.200;2024-03-08T03:06:44;41.85;;;21.10;;
49934;SDS011;39898;41.762;26.200;2024-03-08T03:09:12;44.05;;;21.65;;
49934;SDS011;39898;41.762;26.200;2024-03-08T03:11:44;49.20;;;22.42;;
49934;SDS011;39898;41.762;26.200;2024-03-08T03:14:10;46.20;;;22.80;;
49934;SDS011;39898;41.762;26.200;2024-03-08T03:16:37;63.28;;;25.13;;
49934;SDS011;39898;41.762;26.200;2024-03-08T03:19:03;63.58;;;25.13;;
49934;SDS011;39898;41.762;26.200;2024-03-08T03:23:58;45.83;;;22.30;;
49934;SDS011;39898;41.762;26.200;2024-03-08T03:26:25;45.75;;;22.15;;
49934;SDS011;39898;41.762;26.200;2024-03-08T03:28:52;52.65;;;23.45;;
49934;SDS011;39898;41.762;26.200;2024-03-08T03:31:20;54.17;;;23.23;;
49934;SDS011;39898;41.762;26.200;2024-03-08T03:33:50;64.13;;;24.75;;
49934;SDS011;39898;41.762;26.200;2024-03-08T03:36:19;49.13;;;22.90;;
49934;SDS011;39898;41.762;26.200;2024-03-08T03:38:46;53.15;;;24.83;;
49934;SDS011;39898;41.762;26.200;2024-03-08T03:41:12;57.97;;;24.70;;
49934;SDS011;39898;41.762;26.200;2024-03-08T03:43:40;47.53;;;23.52;;
49934;SDS011;39898;41.762;26.200;2024-03-08T03:46:07;48.63;;;25.05;;
49934;SDS011;39898;41.762;26.200;2024-03-08T03:48:34;57.33;;;24.98;;
49934;SDS011;39898;41.762;26.200;2024-03-08T03:51:00;55.55;;;26.25;;
49934;SDS011;39898;41.762;26.200;2024-03-08T03:53:27;58.20;;;27.42;;
49934;SDS011;39898;41.762;26.200;2024-03-08T03:55:53;55.72;;;23.98;;
49934;SDS011;39898;41.762;26.200;2024-03-08T03:58:20;53.38;;;24.88;;
49934;SDS011;39898;41.762;26.200;2024-03-08T04:00:49;64.43;;;26.05;;
49934;SDS011;39898;41.762;26.200;2024-03-08T04:03:15;63.67;;;28.17;;
49934;SDS011;39898;41.762;26.200;2024-03-08T04:05:43;71.70;;;29.00;;
49934;SDS011;39898;41.762;26.200;2024-03-08T04:08:09;59.05;;;26.33;;
49934;SDS011;39898;41.762;26.200;2024-03-08T04:10:36;56.70;;;25.75;;
49934;SDS011;39898;41.762;26.200;2024-03-08T04:13:03;70.70;;;30.67;;
49934;SDS011;39898;41.762;26.200;2024-03-08T04:15:30;63.90;;;29.13;;
49934;SDS011;39898;41.762;26.200;2024-03-08T04:17:57;69.35;;;27.67;;
49934;SDS011;39898;41.762;26.200;2024-03-08T04:20:24;68.90;;;30.15;;
49934;SDS011;39898;41.762;26.200;2024-03-08T04:22:50;66.22;;;29.48;;
49934;SDS011;39898;41.762;26.200;2024-03-08T04:25:17;70.15;;;30.63;;
49934;SDS011;39898;41.762;26.200;2024-03-08T04:27:44;50.90;;;21.50;;
49934;SDS011;39898;41.762;26.200;2024-03-08T04:30:11;68.75;;;29.17;;
49934;SDS011;39898;41.762;26.200;2024-03-08T04:32:38;56.58;;;26.10;;
49934;SDS011;39898;41.762;26.200;2024-03-08T04:35:05;56.65;;;26.98;;
49934;SDS011;39898;41.762;26.200;2024-03-08T04:37:31;57.13;;;25.88;;
49934;SDS011;39898;41.762;26.200;2024-03-08T04:39:58;55.88;;;26.45;;
49934;SDS011;39898;41.762;26.200;2024-03-08T04:42:26;62.08;;;26.48;;
49934;SDS011;39898;41.762;26.200;2024-03-08T04:44:53;70.38;;;29.20;;
49934;SDS011;39898;41.762;26.200;2024-03-08T04:47:22;55.60;;;28.75;;
49934;SDS011;39898;41.762;26.200;2024-03-08T04:49:49;58.70;;;27.52;;
49934;SDS011;39898;41.762;26.200;2024-03-08T04:52:16;57.40;;;25.15;;
49934;SDS011;39898;41.762;26.200;2024-03-08T04:54:43;56.67;;;25.38;;
49934;SDS011;39898;41.762;26.200;2024-03-08T04:57:11;62.22;;;25.33;;
49934;SDS011;39898;41.762;26.200;2024-03-08T04:59:37;60.22;;;26.63;;
49934;SDS011;39898;41.762;26.200;2024-03-08T05:02:04;59.75;;;26.70;;
49934;SDS011;39898;41.762;26.200;2024-03-08T05:04:31;82.57;;;33.05;;
49934;SDS011;39898;41.762;26.200;2024-03-08T05:06:57;63.88;;;28.90;;
49934;SDS011;39898;41.762;26.200;2024-03-08T05:09:27;57.92;;;26.80;;
49934;SDS011;39898;41.762;26.200;2024-03-08T05:11:58;59.78;;;26.85;;
49934;SDS011;39898;41.762;26.200;2024-03-08T05:14:25;55.92;;;25.83;;
49934;SDS011;39898;41.762;26.200;2024-03-08T05:16:52;48.42;;;25.17;;
49934;SDS011;39898;41.762;26.200;2024-03-08T05:19:20;69.20;;;32.08;;
49934;SDS011;39898;41.762;26.200;2024-03-08T05:21:48;55.42;;;26.30;;
49934;SDS011;39898;41.762;26.200;2024-03-08T05:24:15;57.63;;;24.73;;
49934;SDS011;39898;41.762;26.200;2024-03-08T05:26:44;62.13;;;23.80;;
49934;SDS011;39898;41.762;26.200;2024-03-08T05:29:12;53.67;;;23.05;;
49934;SDS011;39898;41.762;26.200;2024-03-08T05:31:46;50.20;;;23.10;;
49934;SDS011;39898;41.762;26.200;2024-03-08T05:34:13;58.03;;;23.70;;
49934;SDS011;39898;41.762;26.200;2024-03-08T05:36:41;53.53;;;22.80;;
49934;SDS011;39898;41.762;26.200;2024-03-08T05:39:11;47.72;;;24.45;;
49934;SDS011;39898;41.762;26.200;2024-03-08T05:41:38;59.65;;;28.63;;
49934;SDS011;39898;41.762;26.200;2024-03-08T05:44:07;51.92;;;24.25;;
49934;SDS011;39898;41.762;26.200;2024-03-08T05:46:34;106.65;;;42.47;;
49934;SDS011;39898;41.762;26.200;2024-03-08T05:49:05;63.67;;;26.75;;
49934;SDS011;39898;41.762;26.200;2024-03-08T05:51:32;62.33;;;27.35;;
49934;SDS011;39898;41.762;26.200;2024-03-08T05:54:04;56.72;;;28.20;;
49934;SDS011;39898;41.762;26.200;2024-03-08T05:56:37;99.72;;;45.92;;
49934;SDS011;39898;41.762;26.200;2024-03-08T05:59:04;76.32;;;33.35;;
49934;SDS011;39898;41.762;26.200;2024-03-08T06:01:30;57.42;;;24.50;;
49934;SDS011;39898;41.762;26.200;2024-03-08T06:03:57;46.20;;;22.50;;
49934;SDS011;39898;41.762;26.200;2024-03-08T06:06:24;50.67;;;25.15;;
49934;SDS011;39898;41.762;26.200;2024-03-08T06:08:51;56.67;;;23.83;;
49934;SDS011;39898;41.762;26.200;2024-03-08T06:11:18;51.05;;;23.95;;
49934;SDS011;39898;41.762;26.200;2024-03-08T06:13:46;66.28;;;29.17;;
49934;SDS011;39898;41.762;26.200;2024-03-08T06:16:12;78.72;;;35.83;;
49934;SDS011;39898;41.762;26.200;2024-03-08T06:18:39;60.92;;;27.17;;
49934;SDS011;39898;41.762;26.200;2024-03-08T06:21:06;73.38;;;31.02;;
49934;SDS011;39898;41.762;26.200;2024-03-08T06:23:33;67.20;;;31.95;;
49934;SDS011;39898;41.762;26.200;2024-03-08T06:26:00;92.05;;;42.78;;
49934;SDS011;39898;41.762;26.200;2024-03-08T06:28:27;86.18;;;40.90;;
49934;SDS011;39898;41.762;26.200;2024-03-08T06:30:53;74.65;;;35.70;;
49934;SDS011;39898;41.762;26.200;2024-03-08T06:33:20;66.55;;;31.27;;
49934;SDS011;39898;41.762;26.200;2024-03-08T06:35:47;67.40;;;30.60;;
49934;SDS011;39898;41.762;26.200;2024-03-08T06:38:13;78.60;;;38.47;;
49934;SDS011;39898;41.762;26.200;2024-03-08T06:40:43;66.50;;;32.20;;
49934;SDS011;39898;41.762;26.200;2024-03-08T06:43:09;56.40;;;28.95;;
49934;SDS011;39898;41.762;26.200;2024-03-08T06:45:40;74.38;;;28.17;;
49934;SDS011;39898;41.762;26.200;2024-03-08T06:48:07;71.18;;;31.40;;
49934;SDS011;39898;41.762;26.200;2024-03-08T06:50:36;64.45;;;30.85;;
49934;SDS011;39898;41.762;26.200;2024-03-08T06:53:02;60.22;;;29.80;;
49934;SDS011;39898;41.762;26.200;2024-03-08T06:55:29;71.97;;;34.13;;
49934;SDS011;39898;41.762;26.200;2024-03-08T06:57:56;100.20;;;45.58;;
49934;SDS011;39898;41.762;26.200;2024-03-08T07:00:22;77.25;;;35.28;;
49934;SDS011;39898;41.762;26.200;2024-03-08T07:02:53;47.78;;;25.13;;
49934;SDS011;39898;41.762;26.200;2024-03-08T07:05:20;53.42;;;25.30;;
49934;SDS011;39898;41.762;26.200;2024-03-08T07:07:46;60.40;;;28.35;;
49934;SDS011;39898;41.762;26.200;2024-03-08T07:10:15;65.13;;;28.88;;
49934;SDS011;39898;41.762;26.200;2024-03-08T07:12:43;65.57;;;28.27;;
49934;SDS011;39898;41.762;26.200;2024-03-08T07:15:09;73.90;;;30.02;;
49934;SDS011;39898;41.762;26.200;2024-03-08T07:17:40;64.97;;;29.15;;
49934;SDS011;39898;41.762;26.200;2024-03-08T07:20:07;53.38;;;24.25;;
49934;SDS011;39898;41.762;26.200;2024-03-08T07:22:38;57.35;;;26.45;;
49934;SDS011;39898;41.762;26.200;2024-03-08T07:25:05;61.85;;;26.55;;
49934;SDS011;39898;41.762;26.200;2024-03-08T07:30:15;50.47;;;23.65;;
49934;SDS011;39898;41.762;26.200;2024-03-08T07:33:00;56.00;;;25.15;;
49934;SDS011;39898;41.762;26.200;2024-03-08T07:35:29;54.75;;;22.98;;
49934;SDS011;39898;41.762;26.200;2024-03-08T07:37:55;44.15;;;21.10;;
49934;SDS011;39898;41.762;26.200;2024-03-08T07:40:22;46.55;;;22.90;;
49934;SDS011;39898;41.762;26.200;2024-03-08T07:42:49;45.87;;;22.80;;
49934;SDS011;39898;41.762;26.200;2024-03-08T07:47:44;40.95;;;18.08;;
49934;SDS011;39898;41.762;26.200;2024-03-08T07:50:11;46.05;;;19.60;;
49934;SDS011;39898;41.762;26.200;2024-03-08T07:52:37;46.80;;;23.27;;
49934;SDS011;39898;41.762;26.200;2024-03-08T07:55:04;67.30;;;27.20;;
49934;SDS011;39898;41.762;26.200;2024-03-08T07:57:31;80.55;;;39.83;;
49934;SDS011;39898;41.762;26.200;2024-03-08T07:59:58;53.67;;;26.75;;
49934;SDS011;39898;41.762;26.200;2024-03-08T08:02:25;50.75;;;24.25;;
49934;SDS011;39898;41.762;26.200;2024-03-08T08:04:51;57.28;;;26.55;;
49934;SDS011;39898;41.762;26.200;2024-03-08T08:07:18;60.00;;;25.98;;
49934;SDS011;39898;41.762;26.200;2024-03-08T08:09:45;60.28;;;25.70;;
49934;SDS011;39898;41.762;26.200;2024-03-08T08:12:11;88.68;;;38.72;;
49934;SDS011;39898;41.762;26.200;2024-03-08T08:14:40;82.10;;;29.88;;
49934;SDS011;39898;41.762;26.200;2024-03-08T08:17:07;141.95;;;57.75;;
49934;SDS011;39898;41.762;26.200;2024-03-08T08:19:35;82.57;;;34.25;;
49934;SDS011;39898;41.762;26.200;2024-03-08T08:22:05;79.60;;;34.70;;
49934;SDS011;39898;41.762;26.200;2024-03-08T08:24:35;67.45;;;33.33;;
49934;SDS011;39898;41.762;26.200;2024-03-08T08:27:03;54.38;;;27.73;;
49934;SDS011;39898;41.762;26.200;2024-03-08T08:29:30;137.83;;;48.83;;
49934;SDS011;39898;41.762;26.200;2024-03-08T08:31:59;69.70;;;29.75;;
49934;SDS011;39898;41.762;26.200;2024-03-08T08:34:28;54.95;;;23.88;;
49934;SDS011;39898;41.762;26.200;2024-03-08T08:36:56;53.78;;;24.15;;
49934;SDS011;39898;41.762;26.200;2024-03-08T08:39:23;45.83;;;22.48;;
49934;SDS011;39898;41.762;26.200;2024-03-08T08:41:52;48.55;;;23.25;;
49934;SDS011;39898;41.762;26.200;2024-03-08T08:44:21;51.95;;;24.95;;
49934;SDS011;39898;41.762;26.200;2024-03-08T08:46:48;55.97;;;27.02;;
49934;SDS011;39898;41.762;26.200;2024-03-08T08:49:15;41.58;;;21.50;;
49934;SDS011;39898;41.762;26.200;2024-03-08T08:51:48;38.35;;;20.60;;
49934;SDS011;39898;41.762;26.200;2024-03-08T08:54:14;39.90;;;18.88;;
49934;SDS011;39898;41.762;26.200;2024-03-08T08:56:43;35.38;;;16.88;;
49934;SDS011;39898;41.762;26.200;2024-03-08T08:59:16;39.20;;;19.17;;
49934;SDS011;39898;41.762;26.200;2024-03-08T09:01:49;33.95;;;17.42;;
49934;SDS011;39898;41.762;26.200;2024-03-08T09:04:16;37.72;;;18.55;;
49934;SDS011;39898;41.762;26.200;2024-03-08T09:06:43;41.40;;;19.33;;
49934;SDS011;39898;41.762;26.200;2024-03-08T09:09:11;32.45;;;17.73;;
49934;SDS011;39898;41.762;26.200;2024-03-08T09:11:40;41.85;;;18.50;;
49934;SDS011;39898;41.762;26.200;2024-03-08T09:14:08;51.38;;;21.88;;
49934;SDS011;39898;41.762;26.200;2024-03-08T09:16:35;36.10;;;19.20;;
49934;SDS011;39898;41.762;26.200;2024-03-08T09:19:02;35.13;;;17.63;;
49934;SDS011;39898;41.762;26.200;2024-03-08T09:21:29;33.17;;;16.92;;
49934;SDS011;39898;41.762;26.200;2024-03-08T09:23:56;34.00;;;17.57;;
49934;SDS011;39898;41.762;26.200;2024-03-08T09:26:22;49.22;;;22.48;;
49934;SDS011;39898;41.762;26.200;2024-03-08T09:28:55;32.72;;;15.55;;
49934;SDS011;39898;41.762;26.200;2024-03-08T09:31:21;31.48;;;16.30;;
49934;SDS011;39898;41.762;26.200;2024-03-08T09:33:48;29.75;;;15.00;;
49934;SDS011;39898;41.762;26.200;2024-03-08T09:36:15;29.00;;;15.38;;
49934;SDS011;39898;41.762;26.200;2024-03-08T09:38:41;26.70;;;14.80;;
49934;SDS011;39898;41.762;26.200;2024-03-08T09:41:09;48.25;;;21.90;;
49934;SDS011;39898;41.762;26.200;2024-03-08T09:43:36;42.83;;;21.80;;
49934;SDS011;39898;41.762;26.200;2024-03-08T09:46:04;25.58;;;14.05;;
49934;SDS011;39898;41.762;26.200;2024-03-08T09:48:33;26.35;;;14.82;;
49934;SDS011;39898;41.762;26.200;2024-03-08T09:51:01;28.20;;;12.77;;
49934;SDS011;39898;41.762;26.200;2024-03-08T09:53:28;32.08;;;16.45;;
49934;SDS011;39898;41.762;26.200;2024-03-08T09:55:54;29.38;;;15.20;;
49934;SDS011;39898;41.762;26.200;2024-03-08T09:58:21;36.33;;;18.92;;
49934;SDS011;39898;41.762;26.200;2024-03-08T10:00:54;42.83;;;20.27;;
49934;SDS011;39898;41.762;26.200;2024-03-08T10:03:23;31.35;;;15.93;;
49934;SDS011;39898;41.762;26.200;2024-03-08T10:05:52;31.75;;;17.05;;
49934;SDS011;39898;41.762;26.200;2024-03-08T10:08:20;28.10;;;15.75;;
49934;SDS011;39898;41.762;26.200;2024-03-08T10:10:46;35.15;;;18.20;;
49934;SDS011;39898;41.762;26.200;2024-03-08T10:13:13;34.83;;;17.20;;
49934;SDS011;39898;41.762;26.200;2024-03-08T10:15:40;36.50;;;17.83;;
49934;SDS011;39898;41.762;26.200;2024-03-08T10:18:07;41.50;;;19.77;;
49934;SDS011;39898;41.762;26.200;2024-03-08T10:20:33;34.70;;;18.92;;
49934;SDS011;39898;41.762;26.200;2024-03-08T10:23:00;51.47;;;23.65;;
49934;SDS011;39898;41.762;26.200;2024-03-08T10:25:36;64.00;;;27.00;;
49934;SDS011;39898;41.762;26.200;2024-03-08T10:28:03;87.90;;;38.00;;
49934;SDS011;39898;41.762;26.200;2024-03-08T10:30:31;56.47;;;27.05;;
49934;SDS011;39898;41.762;26.200;2024-03-08T10:32:57;45.47;;;21.88;;
49934;SDS011;39898;41.762;26.200;2024-03-08T10:35:25;57.15;;;27.27;;
49934;SDS011;39898;41.762;26.200;2024-03-08T10:37:53;99.72;;;43.88;;
49934;SDS011;39898;41.762;26.200;2024-03-08T10:40:26;84.47;;;34.95;;
49934;SDS011;39898;41.762;26.200;2024-03-08T10:42:56;135.38;;;55.83;;
49934;SDS011;39898;41.762;26.200;2024-03-08T10:47:55;48.88;;;25.45;;
49934;SDS011;39898;41.762;26.200;2024-03-08T10:50:29;32.75;;;17.23;;
49934;SDS011;39898;41.762;26.200;2024-03-08T10:52:56;36.15;;;18.95;;
49934;SDS011;39898;41.762;26.200;2024-03-08T10:55:23;41.40;;;20.05;;
49934;SDS011;39898;41.762;26.200;2024-03-08T10:57:51;37.45;;;17.60;;
49934;SDS011;39898;41.762;26.200;2024-03-08T11:00:18;35.15;;;18.20;;
49934;SDS011;39898;41.762;26.200;2024-03-08T11:02:52;35.42;;;17.40;;
49934;SDS011;39898;41.762;26.200;2024-03-08T11:05:35;33.92;;;17.20;;
49934;SDS011;39898;41.762;26.200;2024-03-08T11:08:19;32.60;;;16.60;;
49934;SDS011;39898;41.762;26.200;2024-03-08T11:13:32;33.25;;;17.17;;
49934;SDS011;39898;41.762;26.200;2024-03-08T11:15:58;103.45;;;45.58;;
49934;SDS011;39898;41.762;26.200;2024-03-08T11:18:26;57.92;;;26.63;;
49934;SDS011;39898;41.762;26.200;2024-03-08T11:20:56;39.67;;;20.60;;
49934;SDS011;39898;41.762;26.200;2024-03-08T11:23:24;28.52;;;15.18;;
49934;SDS011;39898;41.762;26.200;2024-03-08T11:25:52;28.20;;;16.45;;
49934;SDS011;39898;41.762;26.200;2024-03-08T11:28:20;20.23;;;11.00;;
49934;SDS011;39898;41.762;26.200;2024-03-08T11:33:28;30.23;;;13.60;;
49934;SDS011;39898;41.762;26.200;2024-03-08T11:36:04;32.67;;;15.23;;
49934;SDS011;39898;41.762;26.200;2024-03-08T11:38:43;35.35;;;17.48;;
49934;SDS011;39898;41.762;26.200;2024-03-08T11:41:18;72.15;;;29.27;;
49934;SDS011;39898;41.762;26.200;2024-03-08T11:43:46;80.90;;;28.42;;
49934;SDS011;39898;41.762;26.200;2024-03-08T11:46:13;97.82;;;32.35;;
49934;SDS011;39898;41.762;26.200;2024-03-08T11:48:40;37.72;;;18.50;;
49934;SDS011;39898;41.762;26.200;2024-03-08T11:51:14;53.40;;;17.88;;
49934;SDS011;39898;41.762;26.200;2024-03-08T11:53:41;16.60;;;9.38;;
49934;SDS011;39898;41.762;26.200;2024-03-08T11:56:13;23.63;;;10.68;;
49934;SDS011;39898;41.762;26.200;2024-03-08T11:58:41;21.10;;;12.00;;
49934;SDS011;39898;41.762;26.200;2024-03-08T12:01:11;27.17;;;13.23;;
49934;SDS011;39898;41.762;26.200;2024-03-08T12:03:40;25.95;;;12.55;;
49934;SDS011;39898;41.762;26.200;2024-03-08T12:06:12;24.65;;;11.85;;
49934;SDS011;39898;41.762;26.200;2024-03-08T12:08:41;21.75;;;10.02;;
49934;SDS011;39898;41.762;26.200;2024-03-08T12:11:08;13.68;;;8.65;;
49934;SDS011;39898;41.762;26.200;2024-03-08T12:13:37;19.02;;;9.18;;
49934;SDS011;39898;41.762;26.200;2024-03-08T12:16:03;22.83;;;9.63;;
49934;SDS011;39898;41.762;26.200;2024-03-08T12:18:34;17.17;;;9.85;;
49934;SDS011;39898;41.762;26.200;2024-03-08T12:21:07;28.75;;;13.30;;
49934;SDS011;39898;41.762;26.200;2024-03-08T12:23:34;26.83;;;11.25;;
49934;SDS011;39898;41.762;26.200;2024-03-08T12:28:40;29.73;;;14.93;;
49934;SDS011;39898;41.762;26.200;2024-03-08T12:31:11;19.33;;;9.30;;
49934;SDS011;39898;41.762;26.200;2024-03-08T12:34:02;19.08;;;9.35;;
49934;SDS011;39898;41.762;26.200;2024-03-08T12:36:25;18.52;;;10.18;;
49934;SDS011;39898;41.762;26.200;2024-03-08T12:38:53;19.52;;;10.13;;
49934;SDS011;39898;41.762;26.200;2024-03-08T12:41:20;19.15;;;10.00;;
49934;SDS011;39898;41.762;26.200;2024-03-08T12:43:47;26.52;;;14.02;;
49934;SDS011;39898;41.762;26.200;2024-03-08T12:46:17;26.17;;;11.90;;
49934;SDS011;39898;41.762;26.200;2024-03-08T12:48:47;26.75;;;11.27;;
49934;SDS011;39898;41.762;26.200;2024-03-08T12:51:14;23.65;;;12.13;;
49934;SDS011;39898;41.762;26.200;2024-03-08T12:53:42;29.45;;;15.15;;
49934;SDS011;39898;41.762;26.200;2024-03-08T12:56:19;37.38;;;17.08;;
49934;SDS011;39898;41.762;26.200;2024-03-08T12:58:54;27.92;;;13.57;;
49934;SDS011;39898;41.762;26.200;2024-03-08T13:01:21;24.63;;;13.90;;
49934;SDS011;39898;41.762;26.200;2024-03-08T13:03:49;26.75;;;13.20;;
49934;SDS011;39898;41.762;26.200;2024-03-08T13:06:22;21.80;;;11.18;;
49934;SDS011;39898;41.762;26.200;2024-03-08T13:08:51;19.38;;;10.77;;
49934;SDS011;39898;41.762;26.200;2024-03-08T13:11:19;24.33;;;13.52;;
49934;SDS011;39898;41.762;26.200;2024-03-08T13:13:46;24.98;;;12.75;;
49934;SDS011;39898;41.762;26.200;2024-03-08T13:16:13;20.23;;;11.77;;
49934;SDS011;39898;41.762;26.200;2024-03-08T13:18:43;20.48;;;10.35;;
49934;SDS011;39898;41.762;26.200;2024-03-08T13:21:10;19.35;;;10.73;;
49934;SDS011;39898;41.762;26.200;2024-03-08T13:23:37;16.50;;;8.80;;
49934;SDS011;39898;41.762;26.200;2024-03-08T13:26:07;16.75;;;9.88;;
49934;SDS011;39898;41.762;26.200;2024-03-08T13:28:34;13.17;;;6.80;;
49934;SDS011;39898;41.762;26.200;2024-03-08T13:31:04;31.35;;;13.93;;
49934;SDS011;39898;41.762;26.200;2024-03-08T13:33:33;22.70;;;10.45;;
49934;SDS011;39898;41.762;26.200;2024-03-08T13:36:02;21.38;;;11.75;;
49934;SDS011;39898;41.762;26.200;2024-03-08T13:38:35;28.10;;;13.38;;
49934;SDS011;39898;41.762;26.200;2024-03-08T13:41:03;20.90;;;11.90;;
49934;SDS011;39898;41.762;26.200;2024-03-08T13:43:29;22.83;;;11.48;;
49934;SDS011;39898;41.762;26.200;2024-03-08T13:46:00;19.17;;;10.88;;
49934;SDS011;39898;41.762;26.200;2024-03-08T13:48:27;20.88;;;10.45;;
49934;SDS011;39898;41.762;26.200;2024-03-08T13:50:53;22.23;;;12.05;;
49934;SDS011;39898;41.762;26.200;2024-03-08T13:53:21;19.50;;;11.15;;
49934;SDS011;39898;41.762;26.200;2024-03-08T13:55:48;25.23;;;13.05;;
49934;SDS011;39898;41.762;26.200;2024-03-08T13:58:15;20.25;;;9.40;;
49934;SDS011;39898;41.762;26.200;2024-03-08T14:00:42;24.20;;;12.03;;
49934;SDS011;39898;41.762;26.200;2024-03-08T14:03:10;21.83;;;11.40;;
49934;SDS011;39898;41.762;26.200;2024-03-08T14:05:39;23.98;;;11.50;;
49934;SDS011;39898;41.762;26.200;2024-03-08T14:08:06;24.40;;;11.32;;
49934;SDS011;39898;41.762;26.200;2024-03-08T14:10:34;13.98;;;8.65;;
49934;SDS011;39898;41.762;26.200;2024-03-08T14:13:01;16.07;;;9.07;;
49934;SDS011;39898;41.762;26.200;2024-03-08T14:15:29;20.73;;;9.65;;
49934;SDS011;39898;41.762;26.200;2024-03-08T14:17:56;19.85;;;9.25;;
49934;SDS011;39898;41.762;26.200;2024-03-08T14:20:24;20.40;;;10.32;;
49934;SDS011;39898;41.762;26.200;2024-03-08T14:22:54;28.73;;;14.55;;
49934;SDS011;39898;41.762;26.200;2024-03-08T14:25:23;25.08;;;12.90;;
49934;SDS011;39898;41.762;26.200;2024-03-08T14:27:51;23.33;;;12.00;;
49934;SDS011;39898;41.762;26.200;2024-03-08T14:30:25;20.40;;;9.93;;
49934;SDS011;39898;41.762;26.200;2024-03-08T14:33:05;13.80;;;7.95;;
49934;SDS011;39898;41.762;26.200;2024-03-08T14:35:32;22.33;;;10.85;;